KBFD/BFD METAR and TAF weather

Enter ICAO airport designator
Station Type Date Time Source
KBFD METAR 2019/06/26 21:53 UTC NOAA

KBFD 262153Z AUTO 31011KT 10SM SCT055 26/16 A3010 RMK AO2 SLP178 T02560161


Station Type Date Time Source
KBFD Decoded METAR 2019/06/26 21:53 UTC NOAA

BRADFORD REGIONAL AIRPORT, PA, United States (KBFD) 41-48N 078-38W 647M
Jun 26, 2019 - 05:53 PM EDT / 2019.06.26 2153 UTC
Wind: from the NW (310 degrees) at 13 MPH (11 KT):0
Visibility: 10 mile(s):0
Sky conditions: partly cloudy
Temperature: 78.1 F (25.6 C)
Dew Point: 61.0 F (16.1 C)
Relative Humidity: 55%
Pressure (altimeter): 30.1 in. Hg (1019 hPa)
ob: KBFD 262153Z AUTO 31011KT 10SM SCT055 26/16 A3010 RMK AO2 SLP178 T02560161
cycle: 22

Station Type Date Time Source
KBFD TAF 2019/06/26 20:36 UTC NOAA

TAF
AMD KBFD 261935Z 2620/2718 28010G18KT P6SM SCT050
FM262000 28010G17KT P6SM VCSH BKN050
FM262200 29008KT P6SM SKC
FM270900 VRB02KT 3SM BR SKC
FM271300 26004KT P6SM SKC

Example: see airport list